sensor_id;sensor_type;location;lat;lon;timestamp;P1;durP1;ratioP1;P2;durP2;ratioP2
49592;SDS011;35499;51.482;4.264;2023-10-13T00:01:00;8.68;;;3.38;;
49592;SDS011;35499;51.482;4.264;2023-10-13T00:03:29;7.13;;;3.80;;
49592;SDS011;35499;51.482;4.264;2023-10-13T00:05:59;11.23;;;3.40;;
49592;SDS011;35499;51.482;4.264;2023-10-13T00:08:28;8.90;;;3.28;;
49592;SDS011;35499;51.482;4.264;2023-10-13T00:10:54;7.03;;;3.13;;
49592;SDS011;35499;51.482;4.264;2023-10-13T00:13:24;12.73;;;3.10;;
49592;SDS011;35499;51.482;4.264;2023-10-13T00:15:51;7.78;;;2.83;;
49592;SDS011;35499;51.482;4.264;2023-10-13T00:18:31;11.45;;;3.67;;
49592;SDS011;35499;51.482;4.264;2023-10-13T00:21:06;9.13;;;3.70;;
49592;SDS011;35499;51.482;4.264;2023-10-13T00:23:37;10.60;;;3.30;;
49592;SDS011;35499;51.482;4.264;2023-10-13T00:28:29;10.00;;;2.95;;
49592;SDS011;35499;51.482;4.264;2023-10-13T00:33:37;5.88;;;2.55;;
49592;SDS011;35499;51.482;4.264;2023-10-13T00:36:04;12.05;;;2.72;;
49592;SDS011;35499;51.482;4.264;2023-10-13T00:38:30;8.38;;;2.63;;
49592;SDS011;35499;51.482;4.264;2023-10-13T00:40:55;12.07;;;3.10;;
49592;SDS011;35499;51.482;4.264;2023-10-13T00:43:28;9.05;;;3.20;;
49592;SDS011;35499;51.482;4.264;2023-10-13T00:45:54;5.17;;;2.43;;
49592;SDS011;35499;51.482;4.264;2023-10-13T00:48:37;11.88;;;2.85;;
49592;SDS011;35499;51.482;4.264;2023-10-13T00:51:08;7.75;;;2.92;;
49592;SDS011;35499;51.482;4.264;2023-10-13T00:53:57;8.20;;;2.95;;
49592;SDS011;35499;51.482;4.264;2023-10-13T00:56:25;10.88;;;2.55;;
49592;SDS011;35499;51.482;4.264;2023-10-13T00:58:53;10.52;;;2.83;;
49592;SDS011;35499;51.482;4.264;2023-10-13T01:01:22;12.38;;;3.28;;
49592;SDS011;35499;51.482;4.264;2023-10-13T01:03:54;7.35;;;2.88;;
49592;SDS011;35499;51.482;4.264;2023-10-13T01:06:30;10.73;;;2.90;;
49592;SDS011;35499;51.482;4.264;2023-10-13T01:08:59;7.97;;;2.40;;
49592;SDS011;35499;51.482;4.264;2023-10-13T01:11:37;8.48;;;2.88;;
49592;SDS011;35499;51.482;4.264;2023-10-13T01:14:10;8.93;;;2.88;;
49592;SDS011;35499;51.482;4.264;2023-10-13T01:16:36;9.18;;;3.13;;
49592;SDS011;35499;51.482;4.264;2023-10-13T01:19:14;9.35;;;2.72;;
49592;SDS011;35499;51.482;4.264;2023-10-13T01:21:44;7.32;;;2.45;;
49592;SDS011;35499;51.482;4.264;2023-10-13T01:24:10;8.20;;;2.80;;
49592;SDS011;35499;51.482;4.264;2023-10-13T01:26:41;8.88;;;2.40;;
49592;SDS011;35499;51.482;4.264;2023-10-13T01:29:08;7.80;;;2.30;;
49592;SDS011;35499;51.482;4.264;2023-10-13T01:31:42;7.10;;;2.45;;
49592;SDS011;35499;51.482;4.264;2023-10-13T01:34:15;6.70;;;2.72;;
49592;SDS011;35499;51.482;4.264;2023-10-13T01:36:53;9.50;;;2.60;;
49592;SDS011;35499;51.482;4.264;2023-10-13T01:39:20;7.32;;;2.20;;
49592;SDS011;35499;51.482;4.264;2023-10-13T01:41:51;6.28;;;2.83;;
49592;SDS011;35499;51.482;4.264;2023-10-13T01:44:20;11.02;;;2.88;;
49592;SDS011;35499;51.482;4.264;2023-10-13T01:46:49;10.45;;;3.13;;
49592;SDS011;35499;51.482;4.264;2023-10-13T01:49:16;8.88;;;3.00;;
49592;SDS011;35499;51.482;4.264;2023-10-13T01:51:41;6.97;;;2.55;;
49592;SDS011;35499;51.482;4.264;2023-10-13T01:54:07;9.82;;;2.42;;
49592;SDS011;35499;51.482;4.264;2023-10-13T01:56:37;9.65;;;2.90;;
49592;SDS011;35499;51.482;4.264;2023-10-13T01:59:08;8.15;;;2.60;;
49592;SDS011;35499;51.482;4.264;2023-10-13T02:01:34;12.02;;;2.58;;
49592;SDS011;35499;51.482;4.264;2023-10-13T02:04:01;12.73;;;3.15;;
49592;SDS011;35499;51.482;4.264;2023-10-13T02:06:29;8.10;;;3.00;;
49592;SDS011;35499;51.482;4.264;2023-10-13T02:09:00;11.20;;;3.42;;
49592;SDS011;35499;51.482;4.264;2023-10-13T02:11:50;9.05;;;2.67;;
49592;SDS011;35499;51.482;4.264;2023-10-13T02:14:19;10.52;;;3.00;;
49592;SDS011;35499;51.482;4.264;2023-10-13T02:16:47;6.80;;;3.05;;
49592;SDS011;35499;51.482;4.264;2023-10-13T02:19:14;5.60;;;2.00;;
49592;SDS011;35499;51.482;4.264;2023-10-13T02:21:41;9.60;;;2.72;;
49592;SDS011;35499;51.482;4.264;2023-10-13T02:24:10;9.32;;;2.83;;
49592;SDS011;35499;51.482;4.264;2023-10-13T02:26:39;6.25;;;2.47;;
49592;SDS011;35499;51.482;4.264;2023-10-13T02:29:06;5.30;;;2.92;;
49592;SDS011;35499;51.482;4.264;2023-10-13T02:31:39;9.82;;;2.60;;
49592;SDS011;35499;51.482;4.264;2023-10-13T02:34:06;6.88;;;2.95;;
49592;SDS011;35499;51.482;4.264;2023-10-13T02:36:37;10.07;;;3.40;;
49592;SDS011;35499;51.482;4.264;2023-10-13T02:39:13;12.48;;;3.45;;
49592;SDS011;35499;51.482;4.264;2023-10-13T02:41:41;6.03;;;2.70;;
49592;SDS011;35499;51.482;4.264;2023-10-13T02:44:12;9.18;;;2.85;;
49592;SDS011;35499;51.482;4.264;2023-10-13T02:46:52;9.05;;;2.90;;
49592;SDS011;35499;51.482;4.264;2023-10-13T02:49:20;8.10;;;3.00;;
49592;SDS011;35499;51.482;4.264;2023-10-13T02:51:46;9.05;;;2.92;;
49592;SDS011;35499;51.482;4.264;2023-10-13T02:54:11;5.47;;;2.50;;
49592;SDS011;35499;51.482;4.264;2023-10-13T02:56:43;7.43;;;3.67;;
49592;SDS011;35499;51.482;4.264;2023-10-13T02:59:30;9.65;;;3.55;;
49592;SDS011;35499;51.482;4.264;2023-10-13T03:02:06;12.02;;;2.78;;
49592;SDS011;35499;51.482;4.264;2023-10-13T03:05:07;9.65;;;3.65;;
49592;SDS011;35499;51.482;4.264;2023-10-13T03:07:38;8.00;;;2.92;;
49592;SDS011;35499;51.482;4.264;2023-10-13T03:10:09;14.25;;;3.72;;
49592;SDS011;35499;51.482;4.264;2023-10-13T03:12:35;9.10;;;3.60;;
49592;SDS011;35499;51.482;4.264;2023-10-13T03:15:01;13.10;;;3.70;;
49592;SDS011;35499;51.482;4.264;2023-10-13T03:17:42;10.23;;;3.75;;
49592;SDS011;35499;51.482;4.264;2023-10-13T03:20:27;15.43;;;5.43;;
49592;SDS011;35499;51.482;4.264;2023-10-13T03:22:58;17.02;;;5.75;;
49592;SDS011;35499;51.482;4.264;2023-10-13T03:25:24;15.18;;;6.78;;
49592;SDS011;35499;51.482;4.264;2023-10-13T03:28:07;23.55;;;8.68;;
49592;SDS011;35499;51.482;4.264;2023-10-13T03:30:35;26.63;;;8.63;;
49592;SDS011;35499;51.482;4.264;2023-10-13T03:33:04;28.25;;;10.25;;
49592;SDS011;35499;51.482;4.264;2023-10-13T03:35:36;31.13;;;9.90;;
49592;SDS011;35499;51.482;4.264;2023-10-13T03:38:03;29.48;;;11.73;;
49592;SDS011;35499;51.482;4.264;2023-10-13T03:40:29;28.38;;;12.13;;
49592;SDS011;35499;51.482;4.264;2023-10-13T03:42:55;30.50;;;12.85;;
49592;SDS011;35499;51.482;4.264;2023-10-13T03:45:24;28.27;;;11.48;;
49592;SDS011;35499;51.482;4.264;2023-10-13T03:47:50;28.85;;;12.40;;
49592;SDS011;35499;51.482;4.264;2023-10-13T03:50:17;24.98;;;12.48;;
49592;SDS011;35499;51.482;4.264;2023-10-13T03:52:54;22.33;;;11.90;;
49592;SDS011;35499;51.482;4.264;2023-10-13T03:55:23;23.00;;;10.70;;
49592;SDS011;35499;51.482;4.264;2023-10-13T03:57:51;20.75;;;8.68;;
49592;SDS011;35499;51.482;4.264;2023-10-13T04:00:17;25.17;;;9.85;;
49592;SDS011;35499;51.482;4.264;2023-10-13T04:02:56;26.85;;;11.07;;
49592;SDS011;35499;51.482;4.264;2023-10-13T04:05:27;23.25;;;9.73;;
49592;SDS011;35499;51.482;4.264;2023-10-13T04:08:03;20.65;;;10.10;;
49592;SDS011;35499;51.482;4.264;2023-10-13T04:10:48;17.15;;;8.15;;
49592;SDS011;35499;51.482;4.264;2023-10-13T04:13:16;25.67;;;9.80;;
49592;SDS011;35499;51.482;4.264;2023-10-13T04:15:44;19.43;;;8.43;;
49592;SDS011;35499;51.482;4.264;2023-10-13T04:18:28;21.05;;;8.70;;
49592;SDS011;35499;51.482;4.264;2023-10-13T04:21:12;21.75;;;8.82;;
49592;SDS011;35499;51.482;4.264;2023-10-13T04:24:00;18.60;;;8.65;;
49592;SDS011;35499;51.482;4.264;2023-10-13T04:26:49;22.23;;;8.88;;
49592;SDS011;35499;51.482;4.264;2023-10-13T04:29:35;17.77;;;7.32;;
49592;SDS011;35499;51.482;4.264;2023-10-13T04:32:18;17.45;;;7.32;;
49592;SDS011;35499;51.482;4.264;2023-10-13T04:35:03;12.82;;;5.97;;
49592;SDS011;35499;51.482;4.264;2023-10-13T04:37:43;9.05;;;3.83;;
49592;SDS011;35499;51.482;4.264;2023-10-13T04:40:26;11.00;;;4.13;;
49592;SDS011;35499;51.482;4.264;2023-10-13T04:42:53;10.75;;;4.40;;
49592;SDS011;35499;51.482;4.264;2023-10-13T04:45:21;13.10;;;4.80;;
49592;SDS011;35499;51.482;4.264;2023-10-13T04:48:13;14.45;;;6.22;;
49592;SDS011;35499;51.482;4.264;2023-10-13T04:50:48;13.40;;;6.90;;
49592;SDS011;35499;51.482;4.264;2023-10-13T04:53:23;17.98;;;7.78;;
49592;SDS011;35499;51.482;4.264;2023-10-13T04:56:20;12.48;;;7.10;;
49592;SDS011;35499;51.482;4.264;2023-10-13T04:59:05;18.67;;;6.90;;
49592;SDS011;35499;51.482;4.264;2023-10-13T05:01:40;16.25;;;6.47;;
49592;SDS011;35499;51.482;4.264;2023-10-13T05:04:24;14.40;;;5.78;;
49592;SDS011;35499;51.482;4.264;2023-10-13T05:07:03;12.30;;;5.50;;
49592;SDS011;35499;51.482;4.264;2023-10-13T05:09:48;14.80;;;6.22;;
49592;SDS011;35499;51.482;4.264;2023-10-13T05:12:32;10.90;;;6.28;;
49592;SDS011;35499;51.482;4.264;2023-10-13T05:15:15;15.32;;;5.88;;
49592;SDS011;35499;51.482;4.264;2023-10-13T05:17:59;16.25;;;7.10;;
49592;SDS011;35499;51.482;4.264;2023-10-13T05:20:43;13.43;;;6.47;;
49592;SDS011;35499;51.482;4.264;2023-10-13T05:23:27;16.30;;;6.10;;
49592;SDS011;35499;51.482;4.264;2023-10-13T05:26:10;14.88;;;6.68;;
49592;SDS011;35499;51.482;4.264;2023-10-13T05:28:54;15.48;;;6.88;;
49592;SDS011;35499;51.482;4.264;2023-10-13T05:31:38;14.13;;;6.18;;
49592;SDS011;35499;51.482;4.264;2023-10-13T05:34:41;16.65;;;7.43;;
49592;SDS011;35499;51.482;4.264;2023-10-13T05:37:36;14.75;;;6.85;;
49592;SDS011;35499;51.482;4.264;2023-10-13T05:40:20;14.65;;;6.40;;
49592;SDS011;35499;51.482;4.264;2023-10-13T05:43:04;14.98;;;6.63;;
49592;SDS011;35499;51.482;4.264;2023-10-13T05:45:48;15.45;;;6.82;;
49592;SDS011;35499;51.482;4.264;2023-10-13T05:48:31;14.25;;;7.18;;
49592;SDS011;35499;51.482;4.264;2023-10-13T05:51:19;13.55;;;6.68;;
49592;SDS011;35499;51.482;4.264;2023-10-13T05:54:00;13.68;;;6.80;;
49592;SDS011;35499;51.482;4.264;2023-10-13T08:17:34;9.23;;;3.50;;
49592;SDS011;35499;51.482;4.264;2023-10-13T08:20:00;13.38;;;3.95;;
49592;SDS011;35499;51.482;4.264;2023-10-13T08:39:24;11.23;;;3.10;;
49592;SDS011;35499;51.482;4.264;2023-10-13T08:42:08;7.15;;;2.97;;
49592;SDS011;35499;51.482;4.264;2023-10-13T08:44:44;7.63;;;3.50;;
49592;SDS011;35499;51.482;4.264;2023-10-13T08:47:17;14.13;;;3.25;;
49592;SDS011;35499;51.482;4.264;2023-10-13T08:52:31;7.80;;;3.05;;
49592;SDS011;35499;51.482;4.264;2023-10-13T08:55:11;6.72;;;2.72;;
49592;SDS011;35499;51.482;4.264;2023-10-13T08:57:58;8.25;;;4.30;;
49592;SDS011;35499;51.482;4.264;2023-10-13T09:04:32;10.65;;;3.45;;
49592;SDS011;35499;51.482;4.264;2023-10-13T09:07:00;11.85;;;2.55;;
49592;SDS011;35499;51.482;4.264;2023-10-13T09:22:32;8.63;;;3.67;;
49592;SDS011;35499;51.482;4.264;2023-10-13T09:25:04;10.77;;;4.80;;
49592;SDS011;35499;51.482;4.264;2023-10-13T09:27:31;11.57;;;3.53;;
49592;SDS011;35499;51.482;4.264;2023-10-13T09:30:03;12.30;;;3.58;;
49592;SDS011;35499;51.482;4.264;2023-10-13T09:32:43;13.95;;;3.65;;
49592;SDS011;35499;51.482;4.264;2023-10-13T09:35:26;10.32;;;3.53;;
49592;SDS011;35499;51.482;4.264;2023-10-13T09:37:52;9.90;;;3.45;;
49592;SDS011;35499;51.482;4.264;2023-10-13T09:40:21;11.80;;;3.95;;
49592;SDS011;35499;51.482;4.264;2023-10-13T09:42:53;5.93;;;3.63;;
49592;SDS011;35499;51.482;4.264;2023-10-13T09:45:28;9.98;;;3.55;;
49592;SDS011;35499;51.482;4.264;2023-10-13T09:58:16;8.40;;;4.20;;
49592;SDS011;35499;51.482;4.264;2023-10-13T10:00:44;14.30;;;3.60;;
49592;SDS011;35499;51.482;4.264;2023-10-13T10:03:23;12.98;;;3.58;;
49592;SDS011;35499;51.482;4.264;2023-10-13T10:05:59;10.68;;;3.78;;
49592;SDS011;35499;51.482;4.264;2023-10-13T10:08:34;9.30;;;3.83;;
49592;SDS011;35499;51.482;4.264;2023-10-13T10:11:04;11.95;;;3.40;;
49592;SDS011;35499;51.482;4.264;2023-10-13T10:13:54;12.07;;;4.15;;
49592;SDS011;35499;51.482;4.264;2023-10-13T10:17:09;10.38;;;3.80;;
49592;SDS011;35499;51.482;4.264;2023-10-13T10:19:26;9.00;;;3.55;;
49592;SDS011;35499;51.482;4.264;2023-10-13T10:24:59;7.20;;;3.20;;
49592;SDS011;35499;51.482;4.264;2023-10-13T10:27:27;10.23;;;3.88;;
49592;SDS011;35499;51.482;4.264;2023-10-13T10:29:54;10.25;;;3.40;;
49592;SDS011;35499;51.482;4.264;2023-10-13T10:32:20;14.82;;;4.15;;
49592;SDS011;35499;51.482;4.264;2023-10-13T10:34:45;10.47;;;3.43;;
49592;SDS011;35499;51.482;4.264;2023-10-13T10:37:10;10.80;;;3.40;;
49592;SDS011;35499;51.482;4.264;2023-10-13T10:39:37;8.52;;;4.30;;
49592;SDS011;35499;51.482;4.264;2023-10-13T10:42:12;8.45;;;3.22;;
49592;SDS011;35499;51.482;4.264;2023-10-13T10:44:40;8.80;;;4.00;;
49592;SDS011;35499;51.482;4.264;2023-10-13T10:47:09;15.15;;;4.15;;
49592;SDS011;35499;51.482;4.264;2023-10-13T10:49:57;8.52;;;3.97;;
49592;SDS011;35499;51.482;4.264;2023-10-13T10:52:23;13.52;;;3.78;;
49592;SDS011;35499;51.482;4.264;2023-10-13T10:54:58;10.90;;;3.80;;
49592;SDS011;35499;51.482;4.264;2023-10-13T10:57:25;15.07;;;4.13;;
49592;SDS011;35499;51.482;4.264;2023-10-13T10:59:54;12.30;;;3.55;;
49592;SDS011;35499;51.482;4.264;2023-10-13T11:02:36;14.98;;;3.70;;
49592;SDS011;35499;51.482;4.264;2023-10-13T11:05:05;11.50;;;4.20;;
49592;SDS011;35499;51.482;4.264;2023-10-13T11:07:31;11.02;;;4.00;;
49592;SDS011;35499;51.482;4.264;2023-10-13T11:10:09;13.68;;;3.85;;
49592;SDS011;35499;51.482;4.264;2023-10-13T11:12:57;10.57;;;3.45;;
49592;SDS011;35499;51.482;4.264;2023-10-13T11:15:46;12.25;;;3.42;;
49592;SDS011;35499;51.482;4.264;2023-10-13T11:18:11;11.88;;;3.60;;
49592;SDS011;35499;51.482;4.264;2023-10-13T11:20:42;11.88;;;3.75;;
49592;SDS011;35499;51.482;4.264;2023-10-13T11:23:13;10.43;;;3.67;;
49592;SDS011;35499;51.482;4.264;2023-10-13T11:25:40;14.88;;;4.93;;
49592;SDS011;35499;51.482;4.264;2023-10-13T11:28:11;11.73;;;4.05;;
49592;SDS011;35499;51.482;4.264;2023-10-13T11:30:45;10.27;;;4.10;;
49592;SDS011;35499;51.482;4.264;2023-10-13T11:33:15;12.55;;;4.00;;
49592;SDS011;35499;51.482;4.264;2023-10-13T11:35:48;11.65;;;4.47;;
49592;SDS011;35499;51.482;4.264;2023-10-13T11:38:23;12.35;;;4.15;;
49592;SDS011;35499;51.482;4.264;2023-10-13T11:41:03;14.38;;;4.18;;
49592;SDS011;35499;51.482;4.264;2023-10-13T11:43:46;15.68;;;3.88;;
49592;SDS011;35499;51.482;4.264;2023-10-13T11:46:20;14.45;;;4.25;;
49592;SDS011;35499;51.482;4.264;2023-10-13T11:49:04;8.35;;;3.58;;
49592;SDS011;35499;51.482;4.264;2023-10-13T11:51:39;15.13;;;4.22;;
49592;SDS011;35499;51.482;4.264;2023-10-13T11:54:12;11.25;;;3.90;;
49592;SDS011;35499;51.482;4.264;2023-10-13T11:56:38;13.68;;;4.07;;
49592;SDS011;35499;51.482;4.264;2023-10-13T11:59:03;10.48;;;3.85;;
49592;SDS011;35499;51.482;4.264;2023-10-13T12:01:30;13.30;;;4.05;;
49592;SDS011;35499;51.482;4.264;2023-10-13T12:04:14;7.22;;;3.50;;
49592;SDS011;35499;51.482;4.264;2023-10-13T12:06:59;10.63;;;3.70;;
49592;SDS011;35499;51.482;4.264;2023-10-13T12:09:39;11.20;;;4.45;;
49592;SDS011;35499;51.482;4.264;2023-10-13T12:12:21;10.10;;;3.85;;
49592;SDS011;35499;51.482;4.264;2023-10-13T12:14:47;14.40;;;3.90;;
49592;SDS011;35499;51.482;4.264;2023-10-13T12:17:20;12.50;;;3.92;;
49592;SDS011;35499;51.482;4.264;2023-10-13T12:20:03;10.95;;;3.85;;
49592;SDS011;35499;51.482;4.264;2023-10-13T12:22:31;16.65;;;4.30;;
49592;SDS011;35499;51.482;4.264;2023-10-13T12:25:16;13.45;;;4.78;;
49592;SDS011;35499;51.482;4.264;2023-10-13T12:27:59;7.88;;;3.58;;
49592;SDS011;35499;51.482;4.264;2023-10-13T12:33:17;11.48;;;4.95;;
49592;SDS011;35499;51.482;4.264;2023-10-13T12:35:56;11.70;;;3.63;;
49592;SDS011;35499;51.482;4.264;2023-10-13T12:38:41;12.20;;;3.75;;
49592;SDS011;35499;51.482;4.264;2023-10-13T12:41:12;12.50;;;4.57;;
49592;SDS011;35499;51.482;4.264;2023-10-13T12:44:03;10.80;;;3.58;;
49592;SDS011;35499;51.482;4.264;2023-10-13T12:46:48;10.68;;;3.92;;
49592;SDS011;35499;51.482;4.264;2023-10-13T12:49:33;8.70;;;3.78;;
49592;SDS011;35499;51.482;4.264;2023-10-13T12:52:08;14.38;;;4.40;;
49592;SDS011;35499;51.482;4.264;2023-10-13T12:54:50;9.45;;;3.65;;
49592;SDS011;35499;51.482;4.264;2023-10-13T12:57:22;11.13;;;4.30;;
49592;SDS011;35499;51.482;4.264;2023-10-13T12:59:50;14.30;;;4.28;;
49592;SDS011;35499;51.482;4.264;2023-10-13T13:02:22;13.65;;;4.50;;
49592;SDS011;35499;51.482;4.264;2023-10-13T13:04:50;13.52;;;4.57;;
49592;SDS011;35499;51.482;4.264;2023-10-13T13:07:22;10.27;;;4.28;;
49592;SDS011;35499;51.482;4.264;2023-10-13T13:09:54;12.98;;;3.90;;
49592;SDS011;35499;51.482;4.264;2023-10-13T13:12:23;13.10;;;4.45;;
49592;SDS011;35499;51.482;4.264;2023-10-13T13:14:49;9.73;;;3.85;;
49592;SDS011;35499;51.482;4.264;2023-10-13T13:17:19;9.35;;;3.88;;
49592;SDS011;35499;51.482;4.264;2023-10-13T13:19:45;13.32;;;3.35;;
49592;SDS011;35499;51.482;4.264;2023-10-13T13:22:10;15.80;;;5.03;;
49592;SDS011;35499;51.482;4.264;2023-10-13T13:24:39;14.73;;;3.90;;
49592;SDS011;35499;51.482;4.264;2023-10-13T13:27:11;14.80;;;3.65;;
49592;SDS011;35499;51.482;4.264;2023-10-13T13:29:43;12.48;;;3.70;;
49592;SDS011;35499;51.482;4.264;2023-10-13T13:32:09;16.48;;;4.32;;
49592;SDS011;35499;51.482;4.264;2023-10-13T13:34:47;9.60;;;3.35;;
49592;SDS011;35499;51.482;4.264;2023-10-13T13:37:23;11.40;;;3.90;;
49592;SDS011;35499;51.482;4.264;2023-10-13T13:39:52;8.88;;;3.42;;
49592;SDS011;35499;51.482;4.264;2023-10-13T13:42:17;12.10;;;3.10;;
49592;SDS011;35499;51.482;4.264;2023-10-13T13:44:46;10.83;;;3.83;;
49592;SDS011;35499;51.482;4.264;2023-10-13T13:47:12;8.77;;;3.05;;
49592;SDS011;35499;51.482;4.264;2023-10-13T13:49:38;14.88;;;3.80;;
49592;SDS011;35499;51.482;4.264;2023-10-13T13:52:16;13.50;;;4.30;;
49592;SDS011;35499;51.482;4.264;2023-10-13T13:54:46;9.90;;;4.18;;
49592;SDS011;35499;51.482;4.264;2023-10-13T13:57:11;10.67;;;4.20;;
49592;SDS011;35499;51.482;4.264;2023-10-13T13:59:38;12.55;;;4.40;;
49592;SDS011;35499;51.482;4.264;2023-10-13T14:02:04;9.70;;;4.10;;
49592;SDS011;35499;51.482;4.264;2023-10-13T14:04:44;11.13;;;3.85;;
49592;SDS011;35499;51.482;4.264;2023-10-13T14:07:12;14.20;;;3.47;;
49592;SDS011;35499;51.482;4.264;2023-10-13T14:09:40;14.43;;;4.00;;
49592;SDS011;35499;51.482;4.264;2023-10-13T14:12:08;11.70;;;3.83;;
49592;SDS011;35499;51.482;4.264;2023-10-13T14:14:55;9.90;;;3.40;;
49592;SDS011;35499;51.482;4.264;2023-10-13T14:17:21;8.05;;;3.30;;
49592;SDS011;35499;51.482;4.264;2023-10-13T14:19:54;9.52;;;3.35;;
49592;SDS011;35499;51.482;4.264;2023-10-13T14:22:23;9.02;;;3.50;;
49592;SDS011;35499;51.482;4.264;2023-10-13T14:24:50;17.45;;;4.82;;
49592;SDS011;35499;51.482;4.264;2023-10-13T14:27:19;13.73;;;3.97;;
49592;SDS011;35499;51.482;4.264;2023-10-13T14:29:47;9.10;;;3.55;;
49592;SDS011;35499;51.482;4.264;2023-10-13T14:32:18;13.27;;;3.22;;
49592;SDS011;35499;51.482;4.264;2023-10-13T14:34:45;10.35;;;3.58;;
49592;SDS011;35499;51.482;4.264;2023-10-13T14:37:13;12.02;;;2.92;;
49592;SDS011;35499;51.482;4.264;2023-10-13T14:39:39;11.00;;;2.70;;
49592;SDS011;35499;51.482;4.264;2023-10-13T14:42:05;11.48;;;3.58;;
49592;SDS011;35499;51.482;4.264;2023-10-13T14:44:31;6.93;;;2.70;;
49592;SDS011;35499;51.482;4.264;2023-10-13T14:47:00;12.05;;;3.67;;
49592;SDS011;35499;51.482;4.264;2023-10-13T14:49:26;11.50;;;3.05;;
49592;SDS011;35499;51.482;4.264;2023-10-13T14:51:51;14.25;;;3.40;;
49592;SDS011;35499;51.482;4.264;2023-10-13T14:54:20;12.13;;;4.60;;
49592;SDS011;35499;51.482;4.264;2023-10-13T14:56:57;12.15;;;4.15;;
49592;SDS011;35499;51.482;4.264;2023-10-13T14:59:31;8.98;;;3.33;;
49592;SDS011;35499;51.482;4.264;2023-10-13T15:01:58;8.65;;;4.13;;
49592;SDS011;35499;51.482;4.264;2023-10-13T15:04:27;9.73;;;3.90;;
49592;SDS011;35499;51.482;4.264;2023-10-13T15:06:53;7.78;;;3.55;;
49592;SDS011;35499;51.482;4.264;2023-10-13T15:09:20;8.57;;;3.22;;
49592;SDS011;35499;51.482;4.264;2023-10-13T15:11:48;10.75;;;3.75;;
49592;SDS011;35499;51.482;4.264;2023-10-13T15:14:18;10.13;;;3.92;;
49592;SDS011;35499;51.482;4.264;2023-10-13T15:16:45;10.55;;;4.30;;
49592;SDS011;35499;51.482;4.264;2023-10-13T15:19:11;10.65;;;3.58;;
49592;SDS011;35499;51.482;4.264;2023-10-13T15:21:37;9.77;;;3.83;;
49592;SDS011;35499;51.482;4.264;2023-10-13T15:24:05;12.25;;;3.72;;
49592;SDS011;35499;51.482;4.264;2023-10-13T15:26:46;11.05;;;4.13;;
49592;SDS011;35499;51.482;4.264;2023-10-13T15:29:17;12.05;;;3.40;;
49592;SDS011;35499;51.482;4.264;2023-10-13T15:31:43;14.07;;;3.45;;
49592;SDS011;35499;51.482;4.264;2023-10-13T15:34:30;8.80;;;3.17;;
49592;SDS011;35499;51.482;4.264;2023-10-13T15:39:22;8.30;;;3.20;;
49592;SDS011;35499;51.482;4.264;2023-10-13T15:41:56;8.70;;;3.92;;
49592;SDS011;35499;51.482;4.264;2023-10-13T15:44:25;10.93;;;3.40;;
49592;SDS011;35499;51.482;4.264;2023-10-13T15:46:54;12.70;;;3.70;;
49592;SDS011;35499;51.482;4.264;2023-10-13T15:49:20;10.20;;;4.05;;
49592;SDS011;35499;51.482;4.264;2023-10-13T15:51:46;9.48;;;2.97;;
49592;SDS011;35499;51.482;4.264;2023-10-13T15:54:12;13.52;;;3.53;;
49592;SDS011;35499;51.482;4.264;2023-10-13T15:56:47;11.55;;;3.88;;
49592;SDS011;35499;51.482;4.264;2023-10-13T15:59:13;11.73;;;4.50;;
49592;SDS011;35499;51.482;4.264;2023-10-13T16:01:39;13.32;;;3.67;;
49592;SDS011;35499;51.482;4.264;2023-10-13T16:06:38;8.88;;;3.10;;
49592;SDS011;35499;51.482;4.264;2023-10-13T16:09:04;12.45;;;3.45;;
49592;SDS011;35499;51.482;4.264;2023-10-13T16:11:38;12.65;;;3.60;;
49592;SDS011;35499;51.482;4.264;2023-10-13T16:14:05;11.23;;;3.58;;
49592;SDS011;35499;51.482;4.264;2023-10-13T16:16:35;11.65;;;3.75;;
49592;SDS011;35499;51.482;4.264;2023-10-13T16:19:01;12.25;;;3.42;;
49592;SDS011;35499;51.482;4.264;2023-10-13T16:21:29;9.60;;;3.47;;
49592;SDS011;35499;51.482;4.264;2023-10-13T16:23:55;17.52;;;3.47;;
49592;SDS011;35499;51.482;4.264;2023-10-13T16:26:21;11.23;;;3.70;;
49592;SDS011;35499;51.482;4.264;2023-10-13T16:28:50;12.57;;;3.88;;
49592;SDS011;35499;51.482;4.264;2023-10-13T16:31:22;10.43;;;3.90;;
49592;SDS011;35499;51.482;4.264;2023-10-13T16:33:48;13.07;;;4.85;;
49592;SDS011;35499;51.482;4.264;2023-10-13T16:36:14;14.80;;;5.07;;
49592;SDS011;35499;51.482;4.264;2023-10-13T16:38:39;15.85;;;4.63;;
49592;SDS011;35499;51.482;4.264;2023-10-13T16:41:05;16.20;;;4.65;;
49592;SDS011;35499;51.482;4.264;2023-10-13T16:43:33;18.77;;;5.25;;
49592;SDS011;35499;51.482;4.264;2023-10-13T16:45:58;13.98;;;4.45;;
49592;SDS011;35499;51.482;4.264;2023-10-13T16:48:24;14.18;;;5.53;;
49592;SDS011;35499;51.482;4.264;2023-10-13T16:50:51;19.33;;;4.70;;
49592;SDS011;35499;51.482;4.264;2023-10-13T16:53:17;18.33;;;5.25;;
49592;SDS011;35499;51.482;4.264;2023-10-13T16:55:42;15.90;;;4.43;;
49592;SDS011;35499;51.482;4.264;2023-10-13T16:58:08;14.37;;;5.43;;
49592;SDS011;35499;51.482;4.264;2023-10-13T17:00:36;10.80;;;5.22;;
49592;SDS011;35499;51.482;4.264;2023-10-13T17:03:01;17.45;;;6.30;;
49592;SDS011;35499;51.482;4.264;2023-10-13T17:05:37;13.13;;;5.72;;
49592;SDS011;35499;51.482;4.264;2023-10-13T17:08:04;18.42;;;6.22;;
49592;SDS011;35499;51.482;4.264;2023-10-13T17:10:31;24.75;;;6.43;;
49592;SDS011;35499;51.482;4.264;2023-10-13T17:12:57;24.88;;;7.35;;
49592;SDS011;35499;51.482;4.264;2023-10-13T17:15:24;25.02;;;6.63;;
49592;SDS011;35499;51.482;4.264;2023-10-13T17:17:50;23.92;;;6.60;;
49592;SDS011;35499;51.482;4.264;2023-10-13T17:20:15;14.57;;;4.90;;
49592;SDS011;35499;51.482;4.264;2023-10-13T17:22:43;21.10;;;6.45;;
49592;SDS011;35499;51.482;4.264;2023-10-13T17:25:08;17.52;;;6.20;;
49592;SDS011;35499;51.482;4.264;2023-10-13T17:27:38;19.60;;;6.40;;
49592;SDS011;35499;51.482;4.264;2023-10-13T17:32:30;17.08;;;4.70;;
49592;SDS011;35499;51.482;4.264;2023-10-13T17:34:58;18.45;;;6.05;;
49592;SDS011;35499;51.482;4.264;2023-10-13T17:37:25;17.85;;;4.85;;
49592;SDS011;35499;51.482;4.264;2023-10-13T17:39:51;22.08;;;6.15;;
49592;SDS011;35499;51.482;4.264;2023-10-13T17:42:16;19.37;;;5.87;;
49592;SDS011;35499;51.482;4.264;2023-10-13T17:44:43;14.57;;;5.72;;
49592;SDS011;35499;51.482;4.264;2023-10-13T17:47:08;16.00;;;6.53;;
49592;SDS011;35499;51.482;4.264;2023-10-13T17:49:35;16.95;;;5.93;;
49592;SDS011;35499;51.482;4.264;2023-10-13T17:52:04;17.17;;;6.70;;
49592;SDS011;35499;51.482;4.264;2023-10-13T17:54:30;19.77;;;6.72;;
49592;SDS011;35499;51.482;4.264;2023-10-13T17:56:55;14.90;;;5.88;;
49592;SDS011;35499;51.482;4.264;2023-10-13T17:59:21;18.53;;;6.43;;
49592;SDS011;35499;51.482;4.264;2023-10-13T18:01:47;21.92;;;7.45;;
49592;SDS011;35499;51.482;4.264;2023-10-13T18:04:13;19.67;;;7.07;;
49592;SDS011;35499;51.482;4.264;2023-10-13T18:06:39;14.83;;;6.57;;
49592;SDS011;35499;51.482;4.264;2023-10-13T18:09:04;17.93;;;8.13;;
49592;SDS011;35499;51.482;4.264;2023-10-13T18:11:30;16.00;;;6.70;;
49592;SDS011;35499;51.482;4.264;2023-10-13T18:16:23;17.88;;;7.80;;
49592;SDS011;35499;51.482;4.264;2023-10-13T18:18:51;15.82;;;7.28;;
49592;SDS011;35499;51.482;4.264;2023-10-13T18:21:20;14.10;;;6.03;;
49592;SDS011;35499;51.482;4.264;2023-10-13T18:23:49;13.63;;;5.57;;
49592;SDS011;35499;51.482;4.264;2023-10-13T18:28:41;13.30;;;5.27;;
49592;SDS011;35499;51.482;4.264;2023-10-13T18:31:06;13.32;;;6.13;;
49592;SDS011;35499;51.482;4.264;2023-10-13T18:33:36;11.50;;;5.00;;
49592;SDS011;35499;51.482;4.264;2023-10-13T18:36:18;14.73;;;4.93;;
49592;SDS011;35499;51.482;4.264;2023-10-13T18:38:49;16.98;;;5.57;;